createdAt,value
2022-10-31T00:01:43.692Z,8.27
2022-10-31T00:04:11.763Z,8.40
2022-10-31T00:06:39.587Z,9.30
2022-10-31T00:09:07.677Z,7.70
2022-10-31T00:11:35.490Z,7.63
2022-10-31T00:14:03.955Z,7.20
2022-10-31T00:16:33.163Z,8.85
2022-10-31T00:19:01.919Z,8.15
2022-10-31T00:21:30.152Z,6.72
2022-10-31T00:23:58.599Z,7.53
2022-10-31T00:26:26.907Z,7.75
2022-10-31T00:28:55.200Z,7.93
2022-10-31T00:31:23.048Z,8.30
2022-10-31T00:33:52.277Z,7.00
2022-10-31T00:36:20.941Z,9.02
2022-10-31T00:38:49.683Z,7.10
2022-10-31T00:41:18.834Z,7.78
2022-10-31T00:43:50.442Z,8.25
2022-10-31T00:46:18.479Z,8.50
2022-10-31T00:48:46.331Z,8.00
2022-10-31T00:51:15.549Z,9.93
2022-10-31T00:53:43.683Z,8.77
2022-10-31T00:56:11.851Z,10.30
2022-10-31T00:58:39.790Z,8.15
2022-10-31T01:01:08.012Z,9.65
2022-10-31T01:03:36.134Z,8.63
2022-10-31T01:06:05.541Z,7.97
2022-10-31T01:08:35.303Z,9.30
2022-10-31T01:11:04.139Z,10.38
2022-10-31T01:13:32.322Z,9.73
2022-10-31T01:16:01.321Z,10.82
2022-10-31T01:18:29.826Z,10.65
2022-10-31T01:21:01.526Z,11.48
2022-10-31T01:23:29.905Z,12.27
2022-10-31T01:26:03.056Z,13.10
2022-10-31T01:31:02.108Z,11.98
2022-10-31T01:33:29.929Z,12.80
2022-10-31T01:35:58.069Z,13.02
2022-10-31T01:38:26.176Z,13.15
2022-10-31T01:40:53.995Z,12.85
2022-10-31T01:43:23.666Z,12.50
2022-10-31T01:45:54.960Z,11.85
2022-10-31T01:48:25.880Z,13.23
2022-10-31T01:50:55.472Z,12.73
2022-10-31T01:53:26.825Z,14.18
2022-10-31T01:55:55.267Z,14.05
2022-10-31T01:58:26.707Z,14.52
2022-10-31T02:01:00.503Z,13.50
2022-10-31T02:03:31.588Z,14.15
2022-10-31T02:05:59.931Z,15.55
2022-10-31T02:08:29.776Z,13.88
2022-10-31T02:10:58.555Z,14.18
2022-10-31T02:13:28.079Z,12.90
2022-10-31T02:15:57.032Z,13.45
2022-10-31T02:18:26.351Z,13.18
2022-10-31T02:20:59.861Z,13.25
2022-10-31T02:23:54.629Z,12.27
2022-10-31T02:26:40.190Z,11.07
2022-10-31T02:29:15.046Z,11.68
2022-10-31T02:31:47.441Z,10.38
2022-10-31T02:34:19.776Z,10.45
2022-10-31T02:36:51.065Z,11.60
2022-10-31T02:39:20.823Z,10.38
2022-10-31T02:41:51.752Z,10.57
2022-10-31T02:44:24.456Z,11.38
2022-10-31T02:46:55.507Z,10.75
2022-10-31T02:49:25.675Z,11.18
2022-10-31T02:51:53.575Z,11.68
2022-10-31T02:54:23.348Z,11.98
2022-10-31T02:56:51.987Z,9.65
2022-10-31T02:59:19.945Z,9.23
2022-10-31T03:01:58.897Z,9.43
2022-10-31T03:04:50.787Z,9.98
2022-10-31T03:07:22.838Z,10.27
2022-10-31T03:09:54.964Z,9.20
2022-10-31T03:12:24.744Z,9.73
2022-10-31T03:14:55.593Z,9.77
2022-10-31T03:17:26.007Z,9.43
2022-10-31T03:19:56.340Z,9.35
2022-10-31T03:22:27.191Z,10.02
2022-10-31T03:24:56.062Z,9.75
2022-10-31T03:27:25.447Z,9.15
2022-10-31T03:29:54.598Z,9.15
2022-10-31T03:32:24.598Z,9.40
2022-10-31T03:34:55.589Z,8.80
2022-10-31T03:37:26.495Z,9.80
2022-10-31T03:39:56.581Z,8.93
2022-10-31T03:42:26.136Z,9.57
2022-10-31T03:44:55.784Z,10.77
2022-10-31T03:47:24.054Z,10.13
2022-10-31T03:49:52.163Z,9.38
2022-10-31T03:52:26.060Z,12.00
2022-10-31T03:54:58.325Z,9.10
2022-10-31T03:57:29.241Z,9.98
2022-10-31T03:59:59.747Z,9.82
2022-10-31T04:02:29.603Z,10.25
2022-10-31T04:04:58.004Z,11.45
2022-10-31T04:07:29.087Z,10.55
2022-10-31T04:09:58.632Z,10.18
2022-10-31T04:12:27.414Z,10.52
2022-10-31T04:14:56.844Z,10.63
2022-10-31T04:17:25.656Z,11.45
2022-10-31T04:19:53.702Z,11.88
2022-10-31T04:22:21.639Z,10.80
2022-10-31T04:24:49.483Z,11.90
2022-10-31T04:27:18.725Z,10.73
2022-10-31T04:29:49.844Z,7.25
2022-10-31T04:32:19.011Z,8.38
2022-10-31T04:34:46.894Z,7.38
2022-10-31T04:37:14.699Z,9.38
2022-10-31T04:39:42.545Z,6.57
2022-10-31T04:42:10.382Z,6.82
2022-10-31T04:44:39.562Z,7.18
2022-10-31T04:47:07.506Z,8.52
2022-10-31T04:49:35.319Z,7.90
2022-10-31T04:52:03.488Z,6.57
2022-10-31T04:54:31.361Z,8.68
2022-10-31T04:56:59.392Z,7.38
2022-10-31T04:59:27.223Z,7.05
2022-10-31T05:01:56.466Z,8.27
2022-10-31T05:04:24.633Z,8.27
2022-10-31T05:06:52.474Z,8.98
2022-10-31T05:09:20.296Z,7.72
2022-10-31T05:11:48.125Z,8.60
2022-10-31T05:14:16.204Z,9.52
2022-10-31T05:16:44.025Z,8.93
2022-10-31T05:19:13.443Z,7.97
2022-10-31T05:21:41.482Z,7.70
2022-10-31T05:24:09.479Z,8.63
2022-10-31T05:26:37.631Z,9.00
2022-10-31T05:29:05.466Z,7.75
2022-10-31T05:31:33.295Z,8.77
2022-10-31T05:34:01.208Z,8.10
2022-10-31T05:36:30.600Z,9.18
2022-10-31T05:38:58.542Z,8.10
2022-10-31T05:41:26.622Z,10.68
2022-10-31T05:43:54.400Z,9.98
2022-10-31T05:46:22.236Z,9.20
2022-10-31T05:48:50.528Z,8.60
2022-10-31T05:51:18.381Z,8.18
2022-10-31T05:53:48.100Z,10.25
2022-10-31T05:56:16.060Z,9.15
2022-10-31T05:58:43.893Z,8.60
2022-10-31T06:01:11.924Z,9.60
2022-10-31T06:03:43.286Z,8.40
2022-10-31T06:06:11.110Z,8.90
2022-10-31T06:08:39.216Z,9.70
2022-10-31T06:11:08.678Z,9.40
2022-10-31T06:13:36.498Z,10.38
2022-10-31T06:16:04.498Z,9.70
2022-10-31T06:18:32.336Z,8.70
2022-10-31T06:21:00.132Z,8.77
2022-10-31T06:23:28.188Z,9.13
2022-10-31T06:25:56.442Z,9.90
2022-10-31T06:28:25.751Z,9.38
2022-10-31T06:30:53.558Z,10.27
2022-10-31T06:33:21.424Z,9.52
2022-10-31T06:35:49.537Z,9.38
2022-10-31T06:38:27.736Z,9.18
2022-10-31T06:40:55.779Z,12.00
2022-10-31T06:43:25.055Z,10.43
2022-10-31T06:45:53.115Z,9.32
2022-10-31T06:48:21.415Z,9.98
2022-10-31T06:50:49.836Z,9.88
2022-10-31T06:53:17.654Z,9.70
2022-10-31T06:55:45.487Z,11.02
2022-10-31T06:58:13.311Z,9.25
2022-10-31T07:00:42.663Z,10.95
2022-10-31T07:03:12.288Z,8.27
2022-10-31T07:05:40.439Z,14.40
2022-10-31T07:08:09.721Z,10.45
2022-10-31T07:10:41.164Z,9.77
2022-10-31T07:13:11.613Z,10.00
2022-10-31T07:15:40.612Z,8.63
2022-10-31T07:18:10.510Z,8.88
2022-10-31T07:20:38.850Z,10.73
2022-10-31T07:23:07.149Z,10.77
2022-10-31T07:25:35.133Z,11.07
2022-10-31T07:28:03.275Z,10.63
2022-10-31T07:30:31.234Z,10.85
2022-10-31T07:32:59.173Z,10.23
2022-10-31T07:35:29.321Z,8.35
2022-10-31T07:37:57.677Z,9.23
2022-10-31T07:40:26.360Z,9.73
2022-10-31T07:42:54.712Z,8.55
2022-10-31T07:45:23.045Z,9.10
2022-10-31T07:47:51.477Z,9.65
2022-10-31T07:50:20.182Z,11.07
2022-10-31T07:52:49.504Z,11.98
2022-10-31T07:55:17.666Z,14.63
2022-10-31T07:57:45.471Z,13.65
2022-10-31T08:00:14.011Z,13.88
2022-10-31T08:02:41.836Z,12.80
2022-10-31T08:05:10.142Z,12.95
2022-10-31T08:07:38.808Z,12.75
2022-10-31T08:10:08.517Z,11.93
2022-10-31T08:12:36.357Z,12.15
2022-10-31T08:15:04.373Z,11.77
2022-10-31T08:17:32.402Z,11.23
2022-10-31T08:20:00.304Z,11.43
2022-10-31T08:22:34.421Z,11.35
2022-10-31T08:28:34.012Z,10.88
2022-10-31T08:31:01.856Z,12.10
2022-10-31T08:40:18.214Z,11.73
2022-10-31T08:42:47.129Z,11.75
2022-10-31T08:45:16.413Z,10.45
2022-10-31T08:47:44.409Z,10.32
2022-10-31T08:50:12.311Z,13.57
2022-10-31T08:53:03.702Z,12.60
2022-10-31T08:55:27.956Z,10.57
2022-10-31T08:57:57.215Z,11.40
2022-10-31T09:00:26.609Z,11.05
2022-10-31T09:02:58.637Z,10.35
2022-10-31T09:08:48.525Z,11.02
2022-10-31T09:11:18.307Z,11.48
2022-10-31T09:13:48.767Z,11.25
2022-10-31T09:16:18.014Z,10.50
2022-10-31T09:18:46.236Z,10.35
2022-10-31T09:21:14.155Z,11.20
2022-10-31T09:23:41.980Z,11.75
2022-10-31T09:26:09.853Z,10.95
2022-10-31T09:28:37.707Z,10.65
2022-10-31T09:31:07.737Z,11.98
2022-10-31T09:33:36.921Z,10.23
2022-10-31T09:36:05.269Z,9.75
2022-10-31T09:38:33.276Z,10.10
2022-10-31T09:41:05.538Z,8.90
2022-10-31T09:43:36.046Z,10.63
2022-10-31T09:46:08.010Z,10.52
2022-10-31T09:48:45.178Z,8.77
2022-10-31T09:51:14.561Z,8.80
2022-10-31T09:53:44.477Z,9.75
2022-10-31T09:56:14.955Z,10.15
2022-10-31T09:58:44.214Z,9.63
2022-10-31T10:01:28.570Z,9.70
2022-10-31T10:04:00.580Z,9.82
2022-10-31T10:06:30.428Z,10.10
2022-10-31T10:08:58.570Z,10.18
2022-10-31T10:11:31.895Z,9.38
2022-10-31T10:14:06.989Z,10.15
2022-10-31T10:16:42.315Z,8.48
2022-10-31T10:19:22.905Z,10.68
2022-10-31T10:21:53.080Z,11.45
2022-10-31T10:24:26.182Z,8.88
2022-10-31T10:29:27.747Z,9.13
2022-10-31T10:31:55.879Z,9.43
2022-10-31T10:34:28.688Z,9.77
2022-10-31T10:36:58.660Z,10.45
2022-10-31T10:39:29.594Z,10.90
2022-10-31T10:42:15.500Z,10.95
2022-10-31T10:45:03.221Z,12.02
2022-10-31T10:47:41.942Z,11.43
2022-10-31T10:50:14.435Z,12.00
2022-10-31T10:52:50.904Z,11.85
2022-10-31T10:55:26.042Z,11.18
2022-10-31T10:57:57.963Z,11.40
2022-10-31T11:00:27.355Z,13.95
2022-10-31T11:02:55.569Z,13.07
2022-10-31T11:05:30.548Z,14.57
2022-10-31T11:07:58.340Z,17.25
2022-10-31T11:10:28.495Z,12.20
2022-10-31T11:13:02.266Z,13.35
2022-10-31T11:15:32.995Z,14.27
2022-10-31T11:18:04.285Z,15.07
2022-10-31T11:20:35.746Z,16.10
2022-10-31T11:23:05.888Z,20.45
2022-10-31T11:25:34.063Z,17.70
2022-10-31T11:28:02.607Z,17.92
2022-10-31T11:30:30.909Z,15.70
2022-10-31T11:33:00.389Z,15.55
2022-10-31T11:35:28.935Z,15.15
2022-10-31T11:38:00.878Z,16.80
2022-10-31T11:40:29.197Z,17.23
2022-10-31T11:42:58.789Z,17.85
2022-10-31T11:45:31.777Z,17.08
2022-10-31T11:48:02.096Z,18.35
2022-10-31T11:50:33.796Z,19.48
2022-10-31T11:53:04.246Z,16.90
2022-10-31T11:55:33.525Z,17.92
2022-10-31T11:58:01.725Z,19.08
2022-10-31T12:00:31.218Z,20.77
2022-10-31T12:03:16.679Z,20.55
2022-10-31T12:05:49.130Z,20.08
2022-10-31T12:08:18.333Z,22.38
2022-10-31T12:10:51.161Z,20.98
2022-10-31T12:13:27.228Z,19.83
2022-10-31T12:16:01.502Z,19.05
2022-10-31T12:18:42.558Z,16.50
2022-10-31T12:21:15.034Z,18.77
2022-10-31T12:23:53.967Z,16.83
2022-10-31T12:26:25.184Z,18.05
2022-10-31T12:29:04.464Z,17.17
2022-10-31T12:31:36.650Z,18.80
2022-10-31T12:34:14.170Z,19.10
2022-10-31T12:36:49.047Z,19.95
2022-10-31T12:39:33.386Z,19.23
2022-10-31T12:42:04.944Z,16.30
2022-10-31T12:44:41.140Z,17.55
2022-10-31T12:47:19.056Z,18.48
2022-10-31T12:49:53.499Z,17.77
2022-10-31T12:52:30.033Z,17.80
2022-10-31T12:55:08.260Z,18.67
2022-10-31T12:57:40.050Z,19.17
2022-10-31T13:00:13.771Z,18.52
2022-10-31T13:02:44.484Z,17.83
2022-10-31T13:05:15.939Z,19.35
2022-10-31T13:07:45.587Z,18.50
2022-10-31T13:10:18.783Z,18.98
2022-10-31T13:12:47.925Z,19.83
2022-10-31T13:15:18.656Z,20.75
2022-10-31T13:17:48.615Z,18.90
2022-10-31T13:20:24.247Z,18.95
2022-10-31T13:22:54.817Z,18.38
2022-10-31T13:25:25.421Z,20.83
2022-10-31T13:27:55.215Z,20.08
2022-10-31T13:30:23.594Z,47.85
2022-10-31T13:32:53.894Z,21.88
2022-10-31T13:35:25.078Z,19.52
2022-10-31T13:37:58.701Z,24.85
2022-10-31T13:40:31.778Z,22.10
2022-10-31T13:45:29.511Z,20.67
2022-10-31T13:47:58.781Z,20.25
2022-10-31T13:50:27.847Z,19.77
2022-10-31T13:53:11.089Z,19.88
2022-10-31T13:55:42.480Z,18.52
2022-10-31T13:58:24.734Z,20.33
2022-10-31T14:01:05.742Z,20.17
2022-10-31T14:03:58.438Z,18.90
2022-10-31T14:06:23.731Z,19.88
2022-10-31T14:08:53.329Z,19.15
2022-10-31T14:11:25.196Z,18.75
2022-10-31T14:13:53.138Z,20.55
2022-10-31T14:16:22.488Z,19.55
2022-10-31T14:18:52.382Z,20.48
2022-10-31T14:21:29.408Z,18.40
2022-10-31T14:23:58.061Z,17.95
2022-10-31T14:26:37.457Z,18.70
2022-10-31T14:29:20.167Z,19.70
2022-10-31T14:31:54.088Z,18.67
2022-10-31T14:34:25.316Z,19.17
2022-10-31T14:37:01.200Z,18.10
2022-10-31T14:39:32.816Z,18.20
2022-10-31T14:42:09.156Z,20.13
2022-10-31T14:44:52.028Z,19.30
2022-10-31T14:47:23.956Z,18.75
2022-10-31T14:50:01.719Z,19.50
2022-10-31T14:52:30.145Z,19.52
2022-10-31T14:55:00.157Z,20.52
2022-10-31T14:57:31.347Z,19.13
2022-10-31T15:00:03.879Z,21.15
2022-10-31T15:02:37.803Z,18.52
2022-10-31T15:05:09.163Z,19.83
2022-10-31T15:07:37.889Z,19.15
2022-10-31T15:10:07.659Z,19.13
2022-10-31T15:12:39.417Z,19.63
2022-10-31T15:15:13.496Z,19.40
2022-10-31T15:17:45.664Z,22.63
2022-10-31T15:20:14.302Z,24.67
2022-10-31T15:22:42.217Z,22.48
2022-10-31T15:25:17.762Z,20.52
2022-10-31T15:27:49.078Z,22.58
2022-10-31T15:30:21.431Z,22.52
2022-10-31T15:32:57.586Z,24.08
2022-10-31T15:35:26.930Z,23.52
2022-10-31T15:38:32.383Z,24.35
2022-10-31T15:41:02.680Z,25.48
2022-10-31T15:43:35.799Z,24.98
2022-10-31T15:48:37.839Z,24.10
2022-10-31T15:51:07.370Z,25.30
2022-10-31T15:53:38.023Z,26.45
2022-10-31T15:56:07.766Z,26.13
2022-10-31T15:58:42.504Z,26.40
2022-10-31T16:01:21.226Z,29.10
2022-10-31T16:03:59.748Z,30.38
2022-10-31T16:06:27.617Z,28.95
2022-10-31T16:08:55.795Z,31.67
2022-10-31T16:11:25.706Z,27.33
2022-10-31T16:13:59.920Z,29.58
2022-10-31T16:16:35.130Z,28.02
2022-10-31T16:19:05.394Z,30.48
2022-10-31T16:21:34.297Z,32.83
2022-10-31T16:24:06.018Z,31.20
2022-10-31T16:26:34.873Z,33.53
2022-10-31T16:29:05.664Z,33.08
2022-10-31T16:31:38.251Z,32.88
2022-10-31T16:34:07.469Z,33.40
2022-10-31T16:36:40.692Z,33.85
2022-10-31T16:39:08.595Z,35.42
2022-10-31T16:41:37.980Z,32.83
2022-10-31T16:44:08.905Z,32.17
2022-10-31T16:46:37.108Z,35.38
2022-10-31T16:49:04.988Z,32.33
2022-10-31T16:51:32.914Z,30.90
2022-10-31T16:54:00.997Z,32.17
2022-10-31T16:56:30.235Z,33.95
2022-10-31T16:58:58.223Z,32.15
2022-10-31T17:01:27.587Z,33.30
2022-10-31T17:03:56.755Z,33.38
2022-10-31T17:06:28.318Z,31.52
2022-10-31T17:08:56.379Z,32.65
2022-10-31T17:11:25.947Z,32.63
2022-10-31T17:13:54.557Z,32.28
2022-10-31T17:16:22.714Z,30.30
2022-10-31T17:18:51.908Z,33.50
2022-10-31T17:21:21.392Z,30.90
2022-10-31T17:23:50.422Z,31.45
2022-10-31T17:26:18.868Z,31.73
2022-10-31T17:28:46.778Z,30.27
2022-10-31T17:31:21.690Z,32.15
2022-10-31T17:33:49.624Z,33.35
2022-10-31T17:36:20.129Z,31.80
2022-10-31T17:38:48.093Z,30.92
2022-10-31T17:41:15.882Z,30.65
2022-10-31T17:43:44.214Z,31.10
2022-10-31T17:46:12.618Z,32.35
2022-10-31T17:48:40.521Z,34.40
2022-10-31T17:51:08.987Z,35.55
2022-10-31T17:53:44.294Z,33.88
2022-10-31T17:56:15.905Z,35.90
2022-10-31T17:58:43.859Z,35.08
2022-10-31T18:01:13.791Z,33.85
2022-10-31T18:03:42.844Z,34.95
2022-10-31T18:06:11.302Z,36.10
2022-10-31T18:08:40.535Z,36.50
2022-10-31T18:11:10.988Z,35.45
2022-10-31T18:13:39.744Z,35.80
2022-10-31T18:16:08.783Z,35.33
2022-10-31T18:18:37.009Z,34.25
2022-10-31T18:21:05.550Z,38.25
2022-10-31T18:23:33.885Z,36.17
2022-10-31T18:26:02.208Z,35.25
2022-10-31T18:28:31.590Z,39.08
2022-10-31T18:31:00.157Z,35.85
2022-10-31T18:33:28.166Z,36.55
2022-10-31T18:35:56.235Z,36.25
2022-10-31T18:38:24.526Z,37.80
2022-10-31T18:40:54.462Z,37.63
2022-10-31T18:43:22.639Z,36.90
2022-10-31T18:45:55.214Z,37.20
2022-10-31T18:48:28.393Z,35.28
2022-10-31T18:50:58.322Z,37.67
2022-10-31T18:53:26.518Z,35.45
2022-10-31T18:55:54.547Z,37.72
2022-10-31T18:58:22.562Z,36.58
2022-10-31T19:00:52.114Z,36.38
2022-10-31T19:03:25.718Z,37.28
2022-10-31T19:05:55.521Z,35.72
2022-10-31T19:08:29.437Z,36.40
2022-10-31T19:10:57.731Z,36.83
2022-10-31T19:13:25.743Z,38.08
2022-10-31T19:15:57.428Z,36.92
2022-10-31T19:18:25.456Z,40.38
2022-10-31T19:20:53.426Z,37.30
2022-10-31T19:23:21.474Z,38.65
2022-10-31T19:25:49.486Z,39.95
2022-10-31T19:28:17.563Z,38.38
2022-10-31T19:30:53.073Z,37.72
2022-10-31T19:33:22.639Z,37.00
2022-10-31T19:35:52.536Z,36.63
2022-10-31T19:38:20.977Z,37.70
2022-10-31T19:40:51.115Z,36.28
2022-10-31T19:43:19.377Z,37.72
2022-10-31T19:45:56.638Z,39.85
2022-10-31T19:48:26.459Z,37.83
2022-10-31T19:51:01.290Z,38.90
2022-10-31T19:53:32.894Z,37.03
2022-10-31T19:56:10.255Z,36.35
2022-10-31T19:58:38.161Z,38.50
2022-10-31T20:01:07.759Z,39.45
2022-10-31T20:03:38.991Z,39.15
2022-10-31T20:06:14.569Z,38.40
2022-10-31T20:08:42.643Z,41.58
2022-10-31T20:11:10.555Z,39.10
2022-10-31T20:13:41.131Z,39.70
2022-10-31T20:16:10.494Z,38.00
2022-10-31T20:18:40.188Z,36.67
2022-10-31T20:21:09.509Z,36.92
2022-10-31T20:23:40.910Z,37.20
2022-10-31T20:26:12.158Z,42.90
2022-10-31T20:28:43.640Z,43.20
2022-10-31T20:31:13.316Z,44.33
2022-10-31T20:33:44.846Z,40.97
2022-10-31T20:36:12.697Z,39.72
2022-10-31T20:38:41.956Z,34.58
2022-10-31T20:41:10.830Z,32.35
2022-10-31T20:43:39.016Z,30.15
2022-10-31T20:46:07.641Z,29.10
2022-10-31T20:48:35.552Z,31.23
2022-10-31T20:51:06.037Z,29.08
2022-10-31T20:53:35.702Z,29.52
2022-10-31T20:56:07.140Z,31.17
2022-10-31T20:58:35.775Z,29.83
2022-10-31T21:01:04.554Z,33.30
2022-10-31T21:03:32.730Z,35.00
2022-10-31T21:06:01.338Z,35.17
2022-10-31T21:08:31.003Z,36.05
2022-10-31T21:10:59.111Z,33.13
2022-10-31T21:13:28.274Z,32.20
2022-10-31T21:16:02.833Z,28.27
2022-10-31T21:18:33.674Z,28.83
2022-10-31T21:21:01.622Z,27.45
2022-10-31T21:23:35.101Z,29.20
2022-10-31T21:26:08.701Z,30.05
2022-10-31T21:28:39.934Z,27.90
2022-10-31T21:31:09.411Z,30.90
2022-10-31T21:33:43.490Z,29.40
2022-10-31T21:36:11.706Z,27.83
2022-10-31T21:38:41.349Z,26.73
2022-10-31T21:41:10.123Z,27.15
2022-10-31T21:43:38.729Z,24.98
2022-10-31T21:46:07.336Z,26.02
2022-10-31T21:48:35.335Z,25.50
2022-10-31T21:51:03.789Z,28.42
2022-10-31T21:54:03.540Z,26.20
2022-10-31T21:56:32.836Z,23.25
2022-10-31T21:59:00.755Z,24.50
2022-10-31T22:01:29.481Z,22.23
2022-10-31T22:03:58.109Z,23.42
2022-10-31T22:06:27.354Z,26.30
2022-10-31T22:08:55.832Z,24.55
2022-10-31T22:11:23.900Z,21.35
2022-10-31T22:13:53.491Z,28.23
2022-10-31T22:16:22.219Z,29.08
2022-10-31T22:18:53.236Z,29.95
2022-10-31T22:21:23.673Z,32.05
2022-10-31T22:23:52.108Z,34.47
2022-10-31T22:26:20.301Z,31.30
2022-10-31T22:28:49.140Z,32.25
2022-10-31T22:31:19.699Z,33.35
2022-10-31T22:33:47.812Z,32.33
2022-10-31T22:36:17.197Z,37.92
2022-10-31T22:38:45.816Z,38.20
2022-10-31T22:41:14.900Z,35.03
2022-10-31T22:43:43.046Z,35.63
2022-10-31T22:46:12.605Z,34.92
2022-10-31T22:48:42.489Z,36.75
2022-10-31T22:51:11.168Z,37.97
2022-10-31T22:53:39.503Z,40.45
2022-10-31T22:56:08.381Z,35.45
2022-10-31T22:58:36.519Z,33.75
2022-10-31T23:01:07.909Z,36.03
2022-10-31T23:03:35.821Z,35.00
2022-10-31T23:06:05.629Z,32.70
2022-10-31T23:08:35.405Z,37.28
2022-10-31T23:11:03.480Z,36.90
2022-10-31T23:13:48.572Z,32.72
2022-10-31T23:16:17.150Z,35.00
2022-10-31T23:18:50.061Z,35.85
2022-10-31T23:21:44.155Z,35.40
2022-10-31T23:24:12.627Z,36.20
2022-10-31T23:26:58.325Z,29.80
2022-10-31T23:29:27.289Z,35.33
2022-10-31T23:31:55.674Z,32.15
2022-10-31T23:34:23.808Z,33.95
2022-10-31T23:36:53.223Z,33.58
2022-10-31T23:39:25.014Z,35.90
2022-10-31T23:41:53.224Z,33.97
2022-10-31T23:44:21.103Z,36.63
2022-10-31T23:46:49.185Z,35.75
2022-10-31T23:49:17.309Z,35.72
2022-10-31T23:51:45.121Z,35.97
2022-10-31T23:54:14.603Z,36.05
2022-10-31T23:56:42.483Z,34.92
2022-10-31T23:59:10.577Z,35.42
